Time;durP1;ratioP1;P1;durP2;ratioP2;P2;SDS_P1;SDS_P2;PMS_P1;PMS_P2;Temp;Humidity;BMP_temperature;BMP_pressure;BME280_temperature;BME280_humidity;BME280_pressure;Samples;Min_cycle;Max_cycle;Signal;HPM_P1;HPM_P2
2021/09/30 00:00:37;;;;;;;1.10;0.38;;;12.60;93.00;;;;;;4998202;28;20100;-78
2021/09/30 00:03:03;;;;;;;0.38;0.20;;;12.60;92.50;;;;;;4996350;28;20034;-79
2021/09/30 00:05:29;;;;;;;0.57;0.20;;;12.60;92.80;;;;;;4997372;28;20736;-79
2021/09/30 00:07:54;;;;;;;0.32;0.32;;;12.50;93.00;;;;;;4997451;28;20177;-79
2021/09/30 00:10:23;;;;;;;1.35;0.30;;;12.50;93.00;;;;;;5012148;28;20049;-78
2021/09/30 00:12:55;;;;;;;0.60;0.40;;;12.50;93.00;;;;;;4998803;28;20014;-79
2021/09/30 00:15:32;;;;;;;0.52;0.38;;;12.50;93.00;;;;;;5001646;28;20048;-79
2021/09/30 00:42:09;;;;;;;0.88;0.30;;;12.50;91.80;;;;;;5001110;28;20065;-79
2021/09/30 02:35:06;;;;;;;0.68;0.30;;;11.90;91.40;;;;;;4996719;28;20483;-79
2021/09/30 02:59:37;;;;;;;1.52;0.47;;;11.70;91.60;;;;;;5008931;28;20461;-77
2021/09/30 03:02:05;;;;;;;1.80;0.80;;;11.80;91.60;;;;;;5005209;28;20569;-79
2021/09/30 03:04:32;;;;;;;0.40;0.35;;;11.80;91.50;;;;;;4997989;28;20029;-78
2021/09/30 03:07:01;;;;;;;2.17;0.40;;;11.80;91.70;;;;;;4996893;28;20037;-77
2021/09/30 03:09:44;;;;;;;2.42;0.73;;;11.80;91.60;;;;;;4998099;28;20364;-79
2021/09/30 03:12:21;;;;;;;0.80;0.38;;;11.80;91.50;;;;;;4996340;28;20106;-77
2021/09/30 03:14:58;;;;;;;2.40;0.43;;;11.80;91.70;;;;;;5012331;28;20509;-79
2021/09/30 03:17:31;;;;;;;0.28;0.25;;;11.70;91.60;;;;;;5014083;28;20030;-78
2021/09/30 03:20:05;;;;;;;0.75;0.52;;;11.70;91.70;;;;;;4995151;28;20049;-79
2021/09/30 03:22:32;;;;;;;1.88;0.70;;;11.70;91.20;;;;;;5017519;28;20040;-77
2021/09/30 03:24:58;;;;;;;1.63;0.40;;;11.60;91.50;;;;;;5018547;28;20479;-78
2021/09/30 03:27:25;;;;;;;4.28;0.40;;;11.60;91.80;;;;;;5018954;28;20090;-77
2021/09/30 03:29:51;;;;;;;1.85;0.50;;;11.50;91.50;;;;;;5019081;28;20077;-79
2021/09/30 03:32:17;;;;;;;2.28;0.45;;;11.50;91.60;;;;;;5015748;28;20060;-77
2021/09/30 03:34:45;;;;;;;0.30;0.30;;;11.50;92.00;;;;;;5006990;28;20026;-79
2021/09/30 03:37:11;;;;;;;1.60;0.65;;;11.40;92.10;;;;;;4996999;28;20029;-79
2021/09/30 03:39:37;;;;;;;2.78;0.40;;;11.30;92.20;;;;;;4997937;28;20026;-78
2021/09/30 03:42:04;;;;;;;1.25;0.38;;;11.40;92.40;;;;;;5007242;28;20027;-79
2021/09/30 03:44:31;;;;;;;0.80;0.47;;;11.40;92.60;;;;;;5000718;28;20101;-79
2021/09/30 03:46:57;;;;;;;2.50;0.50;;;11.30;93.00;;;;;;4996067;28;20033;-79
2021/09/30 03:49:35;;;;;;;0.95;0.50;;;11.30;93.50;;;;;;5023314;28;20034;-78
2021/09/30 03:52:12;;;;;;;2.00;0.40;;;11.30;94.00;;;;;;5010331;28;20014;-80
2021/09/30 03:57:22;;;;;;;1.57;0.60;;;11.20;94.70;;;;;;5001495;28;20372;-79
2021/09/30 03:59:48;;;;;;;0.82;0.40;;;11.20;95.10;;;;;;5001421;28;20542;-77
2021/09/30 04:02:14;;;;;;;0.68;0.43;;;11.00;95.50;;;;;;4983342;28;20122;-78
2021/09/30 04:04:40;;;;;;;1.92;0.32;;;10.90;95.90;;;;;;5000333;28;20030;-77
2021/09/30 04:07:08;;;;;;;0.90;0.40;;;10.80;96.30;;;;;;4996810;28;20026;-77
2021/09/30 04:09:36;;;;;;;0.60;0.38;;;10.80;96.60;;;;;;4997588;28;20102;-77
2021/09/30 04:12:20;;;;;;;0.40;0.30;;;10.80;96.90;;;;;;4997144;28;20018;-77
2021/09/30 04:14:46;;;;;;;0.40;0.40;;;10.80;97.20;;;;;;4979994;28;20513;-77
2021/09/30 04:17:11;;;;;;;0.45;0.30;;;10.80;97.30;;;;;;5013411;28;20061;-77
2021/09/30 04:19:37;;;;;;;1.30;0.55;;;10.70;97.30;;;;;;5004696;28;20097;-78
2021/09/30 04:22:03;;;;;;;0.52;0.25;;;10.70;97.40;;;;;;5000363;28;20038;-76
2021/09/30 04:24:29;;;;;;;0.38;0.30;;;10.70;97.60;;;;;;5018467;28;20368;-81
2021/09/30 04:26:55;;;;;;;1.48;0.50;;;10.60;97.80;;;;;;4999399;28;20036;-76
2021/09/30 04:29:22;;;;;;;0.70;0.50;;;10.60;97.90;;;;;;5017696;28;20025;-77
2021/09/30 04:31:47;;;;;;;0.88;0.50;;;10.70;98.00;;;;;;5016732;28;20105;-76
2021/09/30 04:34:14;;;;;;;0.55;0.40;;;10.60;97.90;;;;;;5015623;28;20064;-77
2021/09/30 04:36:41;;;;;;;0.70;0.38;;;10.70;98.00;;;;;;5021180;28;20037;-78
2021/09/30 04:39:07;;;;;;;0.80;0.40;;;10.70;98.00;;;;;;5032994;28;20050;-76
2021/09/30 04:41:32;;;;;;;1.50;0.32;;;10.80;98.10;;;;;;5033455;28;20030;-77
2021/09/30 04:43:58;;;;;;;0.45;0.40;;;10.80;98.10;;;;;;5017619;28;20556;-77
2021/09/30 04:46:24;;;;;;;1.00;0.50;;;10.70;98.00;;;;;;5012162;28;20503;-77
2021/09/30 04:48:51;;;;;;;1.42;1.23;;;10.70;98.00;;;;;;5003649;28;20550;-77
2021/09/30 04:51:17;;;;;;;0.70;0.47;;;10.70;98.00;;;;;;5012478;28;20061;-77
2021/09/30 04:53:43;;;;;;;0.30;0.30;;;10.70;98.10;;;;;;5026175;28;20037;-77
2021/09/30 04:56:11;;;;;;;0.45;0.45;;;10.60;98.20;;;;;;5026896;28;20502;-76
2021/09/30 04:58:37;;;;;;;2.00;0.63;;;10.60;98.30;;;;;;5017199;28;20144;-77
2021/09/30 05:01:03;;;;;;;1.98;0.70;;;10.60;98.40;;;;;;5027895;28;20077;-77
2021/09/30 05:03:28;;;;;;;1.70;0.55;;;10.50;98.40;;;;;;5017849;28;20049;-77
2021/09/30 05:05:54;;;;;;;1.20;0.57;;;10.50;98.50;;;;;;5007292;28;20645;-77
2021/09/30 05:08:20;;;;;;;1.38;0.50;;;10.50;98.50;;;;;;5016293;28;20109;-77
2021/09/30 05:10:47;;;;;;;1.80;0.63;;;10.40;98.40;;;;;;5018364;28;20060;-77
2021/09/30 05:13:46;;;;;;;2.35;0.60;;;10.50;99.10;;;;;;5017917;28;20422;-77
2021/09/30 05:16:12;;;;;;;0.95;0.55;;;10.40;98.60;;;;;;5014331;28;20445;-77
2021/09/30 05:18:44;;;;;;;2.08;0.43;;;10.50;98.70;;;;;;4993756;28;20036;-77
2021/09/30 05:21:10;;;;;;;1.55;0.50;;;10.50;98.50;;;;;;5003157;28;20029;-78
2021/09/30 05:23:36;;;;;;;2.30;0.55;;;10.60;98.30;;;;;;5000397;28;20029;-76
2021/09/30 05:26:02;;;;;;;1.50;0.63;;;10.60;98.10;;;;;;5018471;28;20057;-77
2021/09/30 05:28:28;;;;;;;3.55;1.05;;;10.60;98.00;;;;;;4999479;28;20486;-78
2021/09/30 05:30:55;;;;;;;1.63;0.68;;;10.60;97.80;;;;;;5018782;28;20022;-77
2021/09/30 05:33:21;;;;;;;1.98;0.43;;;10.60;97.80;;;;;;5019250;28;20082;-78
2021/09/30 05:35:47;;;;;;;3.03;0.80;;;10.60;97.80;;;;;;5016515;28;20068;-77
2021/09/30 05:38:13;;;;;;;3.20;1.23;;;10.60;97.70;;;;;;5016345;28;20085;-78
2021/09/30 05:40:40;;;;;;;2.65;0.90;;;10.50;97.60;;;;;;4983961;28;20061;-78
2021/09/30 05:43:09;;;;;;;2.05;0.70;;;10.50;97.70;;;;;;4996362;28;20026;-77
2021/09/30 05:45:41;;;;;;;1.70;0.65;;;10.50;97.60;;;;;;4995519;28;20032;-79
2021/09/30 05:48:07;;;;;;;2.28;0.95;;;10.60;97.60;;;;;;4999307;28;20099;-77
2021/09/30 05:50:33;;;;;;;2.42;1.38;;;10.60;97.50;;;;;;5016886;28;20018;-77
2021/09/30 05:52:59;;;;;;;1.45;0.70;;;10.60;97.20;;;;;;5010658;28;20097;-77
2021/09/30 05:55:25;;;;;;;1.15;0.63;;;10.60;97.10;;;;;;4996836;28;20088;-77
2021/09/30 05:57:50;;;;;;;3.67;1.20;;;10.60;97.10;;;;;;4996787;28;20038;-77
2021/09/30 06:00:30;;;;;;;0.77;0.68;;;10.70;97.00;;;;;;4998137;28;20030;-77
2021/09/30 06:14:05;;;;;;;3.90;0.85;;;10.80;96.60;;;;;;4997547;28;20076;-77
2021/09/30 06:16:30;;;;;;;4.30;1.05;;;10.90;96.70;;;;;;4997228;28;20046;-77
2021/09/30 06:18:56;;;;;;;2.72;0.75;;;10.90;96.70;;;;;;5005551;28;20033;-78
2021/09/30 06:21:22;;;;;;;3.67;1.10;;;10.90;96.50;;;;;;5015987;28;20029;-78
2021/09/30 06:23:48;;;;;;;1.95;0.88;;;10.90;96.50;;;;;;5017594;28;20387;-79
2021/09/30 06:26:14;;;;;;;1.45;0.93;;;11.00;96.10;;;;;;5022542;28;20026;-79
2021/09/30 06:28:40;;;;;;;2.22;0.68;;;11.00;95.80;;;;;;5010841;28;20048;-77
2021/09/30 06:31:06;;;;;;;0.60;0.60;;;11.00;96.00;;;;;;5021921;28;20030;-79
2021/09/30 06:33:32;;;;;;;1.90;1.05;;;10.90;96.10;;;;;;5019645;28;20057;-79
2021/09/30 06:35:57;;;;;;;3.17;0.88;;;11.00;95.90;;;;;;5018173;28;20044;-78
2021/09/30 06:38:23;;;;;;;4.35;0.63;;;11.10;95.80;;;;;;5018348;28;20038;-79
2021/09/30 06:40:49;;;;;;;1.02;0.57;;;11.10;95.00;;;;;;5015490;28;20041;-78
2021/09/30 06:43:15;;;;;;;3.22;1.00;;;11.30;95.20;;;;;;5017627;28;20481;-78
2021/09/30 06:45:40;;;;;;;3.60;0.52;;;11.30;95.00;;;;;;5017325;28;20025;-77
2021/09/30 06:48:06;;;;;;;1.75;0.52;;;11.40;94.90;;;;;;5008150;28;20131;-79
2021/09/30 06:50:32;;;;;;;1.05;0.47;;;11.40;94.50;;;;;;5008018;28;20041;-78
2021/09/30 06:53:01;;;;;;;5.15;0.82;;;11.40;94.30;;;;;;5014201;28;20152;-78
2021/09/30 06:55:27;;;;;;;1.73;0.80;;;11.40;93.80;;;;;;5014308;28;20058;-78
2021/09/30 06:57:52;;;;;;;2.50;0.90;;;11.40;93.60;;;;;;5015340;28;20053;-78
2021/09/30 07:00:21;;;;;;;3.78;0.80;;;11.40;93.40;;;;;;5014904;28;20056;-79
2021/09/30 07:02:46;;;;;;;3.17;1.00;;;11.50;93.50;;;;;;5011797;28;20471;-77
2021/09/30 07:05:14;;;;;;;1.85;1.00;;;11.50;93.40;;;;;;4995155;28;20085;-79
2021/09/30 07:07:40;;;;;;;3.55;1.00;;;11.50;93.00;;;;;;4995789;28;20030;-79
2021/09/30 07:10:11;;;;;;;5.20;1.00;;;11.60;92.50;;;;;;5004203;28;20086;-77
2021/09/30 07:12:38;;;;;;;2.10;0.65;;;11.70;91.90;;;;;;5009645;28;20026;-78
2021/09/30 07:15:04;;;;;;;7.65;0.95;;;11.80;91.60;;;;;;5012388;28;20022;-77
2021/09/30 07:17:30;;;;;;;2.63;0.85;;;11.90;91.10;;;;;;5011170;28;20030;-78
2021/09/30 07:19:57;;;;;;;1.63;1.02;;;12.00;90.80;;;;;;5003653;28;20027;-78
2021/09/30 07:22:24;;;;;;;2.13;0.80;;;12.10;90.40;;;;;;4997172;28;20027;-78
2021/09/30 07:24:50;;;;;;;4.65;1.15;;;12.30;89.40;;;;;;4998564;28;20113;-79
2021/09/30 07:27:16;;;;;;;3.78;1.20;;;12.40;88.90;;;;;;5001767;28;20054;-79
2021/09/30 07:29:42;;;;;;;1.98;0.55;;;12.50;87.30;;;;;;4997085;28;20434;-79
2021/09/30 07:32:08;;;;;;;2.88;1.00;;;12.50;86.60;;;;;;5000888;28;20026;-77
2021/09/30 07:34:34;;;;;;;2.63;1.02;;;12.50;87.10;;;;;;5014831;28;20026;-77
2021/09/30 07:37:00;;;;;;;2.05;0.95;;;12.40;87.50;;;;;;5013479;28;20022;-78
2021/09/30 07:39:28;;;;;;;2.47;1.42;;;12.30;87.90;;;;;;5017605;28;20387;-77
2021/09/30 07:41:53;;;;;;;3.72;1.02;;;12.40;88.00;;;;;;5016443;28;20034;-78
2021/09/30 07:44:19;;;;;;;3.92;0.82;;;12.50;86.50;;;;;;5017952;28;20072;-77
2021/09/30 07:46:47;;;;;;;1.73;0.85;;;12.60;85.70;;;;;;5014881;28;20098;-77
2021/09/30 07:49:13;;;;;;;2.47;1.58;;;12.60;85.30;;;;;;5007505;28;20376;-77
2021/09/30 07:51:39;;;;;;;3.22;1.02;;;12.60;85.00;;;;;;5016801;28;20310;-78
2021/09/30 07:54:06;;;;;;;3.13;0.93;;;12.80;84.00;;;;;;5008236;28;20026;-77
2021/09/30 07:56:32;;;;;;;3.38;1.13;;;12.90;83.10;;;;;;5026986;28;20088;-77
2021/09/30 07:58:59;;;;;;;4.45;1.15;;;13.00;82.50;;;;;;5022719;28;20493;-78
2021/09/30 08:01:24;;;;;;;4.03;1.17;;;13.30;81.70;;;;;;5016569;28;20026;-79
2021/09/30 08:03:50;;;;;;;4.18;1.42;;;13.60;79.50;;;;;;5005943;28;20041;-78
2021/09/30 08:06:17;;;;;;;3.15;0.80;;;13.80;77.50;;;;;;4980943;28;20042;-78
2021/09/30 08:08:43;;;;;;;0.85;0.63;;;14.00;75.90;;;;;;5005703;28;20053;-78
2021/09/30 08:11:09;;;;;;;5.25;0.90;;;14.10;75.00;;;;;;5005543;28;20022;-79
2021/09/30 08:13:35;;;;;;;3.80;0.70;;;14.20;72.80;;;;;;5004877;28;20030;-77
2021/09/30 08:16:01;;;;;;;3.20;0.60;;;14.10;73.00;;;;;;5017018;28;20022;-78
2021/09/30 08:18:27;;;;;;;2.58;0.90;;;13.80;74.50;;;;;;5009456;28;20037;-77
2021/09/30 08:20:53;;;;;;;2.40;0.90;;;13.80;75.10;;;;;;5010585;28;20185;-78
2021/09/30 08:23:20;;;;;;;2.08;0.47;;;14.00;75.20;;;;;;5019762;28;20041;-78
2021/09/30 08:25:47;;;;;;;10.27;0.88;;;14.20;74.90;;;;;;4998685;28;20391;-78
2021/09/30 08:28:13;;;;;;;3.45;0.55;;;14.20;73.40;;;;;;4999031;28;20027;-77
2021/09/30 08:30:40;;;;;;;2.30;0.60;;;14.20;73.50;;;;;;4997769;28;20086;-78
2021/09/30 08:33:10;;;;;;;1.90;0.80;;;14.10;73.40;;;;;;5003270;28;20029;-78
2021/09/30 08:35:37;;;;;;;1.58;0.50;;;14.10;73.60;;;;;;5024317;28;20040;-79
2021/09/30 08:38:03;;;;;;;2.03;0.80;;;14.10;73.50;;;;;;5024802;28;20485;-80
2021/09/30 08:40:30;;;;;;;3.53;1.13;;;14.20;73.10;;;;;;5023545;28;20086;-78
2021/09/30 08:42:57;;;;;;;2.92;0.57;;;14.40;72.70;;;;;;5023555;28;20022;-78
2021/09/30 08:45:23;;;;;;;1.55;0.60;;;14.50;71.50;;;;;;5017442;28;20034;-79
2021/09/30 08:47:56;;;;;;;5.95;1.48;;;14.60;70.80;;;;;;5015247;28;20498;-78
2021/09/30 08:50:22;;;;;;;2.97;0.70;;;14.60;68.20;;;;;;5006247;28;20026;-77
2021/09/30 08:52:48;;;;;;;2.80;0.60;;;14.60;68.10;;;;;;5010992;28;20128;-77
2021/09/30 08:55:14;;;;;;;3.22;0.70;;;15.10;65.60;;;;;;5026440;28;20022;-78
2021/09/30 08:57:48;;;;;;;3.75;0.88;;;15.60;63.80;;;;;;5027438;28;20030;-78
2021/09/30 09:00:16;;;;;;;2.05;0.80;;;16.20;62.70;;;;;;5025138;28;20038;-78
2021/09/30 09:02:51;;;;;;;2.03;0.73;;;16.60;62.30;;;;;;5024279;28;20022;-77
2021/09/30 09:05:19;;;;;;;0.93;0.40;;;17.00;59.20;;;;;;5024009;28;20025;-78
2021/09/30 09:07:55;;;;;;;5.28;0.80;;;17.50;59.70;;;;;;5023892;28;20360;-77
2021/09/30 09:10:22;;;;;;;3.92;1.00;;;18.00;57.30;;;;;;5025237;28;20051;-77
2021/09/30 09:13:09;;;;;;;4.13;0.55;;;18.10;56.40;;;;;;5017395;28;20028;-78
2021/09/30 09:15:48;;;;;;;2.58;0.73;;;17.90;56.00;;;;;;5015607;28;20026;-78
2021/09/30 09:18:27;;;;;;;5.18;0.75;;;17.40;57.20;;;;;;5028685;28;20026;-78
2021/09/30 09:21:04;;;;;;;1.23;0.50;;;16.60;58.70;;;;;;5017363;28;20040;-78
2021/09/30 09:23:33;;;;;;;1.48;0.90;;;15.90;59.60;;;;;;5022907;28;20051;-77
2021/09/30 09:26:16;;;;;;;3.03;0.77;;;15.10;61.40;;;;;;5027767;28;20102;-79
2021/09/30 09:29:04;;;;;;;3.03;0.90;;;14.50;63.30;;;;;;5029740;28;20029;-79
2021/09/30 09:31:38;;;;;;;1.92;0.52;;;14.10;64.90;;;;;;5024010;28;20040;-79
2021/09/30 09:34:22;;;;;;;0.57;0.47;;;14.30;66.10;;;;;;5026136;28;20041;-78
2021/09/30 09:36:51;;;;;;;2.78;0.90;;;14.50;65.40;;;;;;5006900;28;20022;-78
2021/09/30 09:39:37;;;;;;;5.18;0.80;;;14.70;62.00;;;;;;5009154;28;20149;-78
2021/09/30 09:42:14;;;;;;;1.50;0.50;;;14.90;61.40;;;;;;4999041;28;20119;-77
2021/09/30 09:48:14;;;;;;;1.85;0.70;;;14.90;61.80;;;;;;5007994;28;20032;-77
2021/09/30 09:50:40;;;;;;;2.75;0.40;;;15.70;60.80;;;;;;5019605;28;20049;-78
2021/09/30 09:53:06;;;;;;;2.58;0.60;;;16.30;59.90;;;;;;5011716;28;20323;-78
2021/09/30 09:55:42;;;;;;;2.85;0.70;;;16.80;57.00;;;;;;5000767;28;20026;-76
2021/09/30 09:58:13;;;;;;;2.10;0.63;;;17.10;55.10;;;;;;4999869;28;20027;-78
2021/09/30 10:00:41;;;;;;;1.33;0.60;;;17.40;55.20;;;;;;5002993;28;20018;-78
2021/09/30 10:03:18;;;;;;;2.55;0.80;;;17.90;55.00;;;;;;5002270;28;20022;-78
2021/09/30 10:05:46;;;;;;;1.75;0.50;;;18.20;53.00;;;;;;4981099;28;20049;-77
2021/09/30 10:08:14;;;;;;;2.85;1.45;;;18.20;54.00;;;;;;5009932;28;20080;-78
2021/09/30 10:10:41;;;;;;;2.50;1.02;;;18.10;54.00;;;;;;5023558;28;20052;-77
2021/09/30 10:13:10;;;;;;;3.25;0.77;;;18.20;54.50;;;;;;5027364;28;20026;-77
2021/09/30 10:15:37;;;;;;;2.70;0.73;;;18.30;53.90;;;;;;5025810;28;20053;-77
2021/09/30 10:18:12;;;;;;;0.88;0.50;;;18.10;53.70;;;;;;5019290;28;20055;-77
2021/09/30 10:20:40;;;;;;;0.77;0.77;;;18.20;54.70;;;;;;5003782;28;20030;-77
2021/09/30 10:23:09;;;;;;;2.13;0.60;;;18.50;54.30;;;;;;5000526;28;20026;-77
2021/09/30 10:25:41;;;;;;;0.88;0.50;;;18.60;52.90;;;;;;5019088;28;20026;-77
2021/09/30 10:28:08;;;;;;;;;;;18.40;52.20;;;;;;5017340;28;20054;-77
2021/09/30 10:30:53;;;;;;;0.80;0.60;;;17.90;52.50;;;;;;4999964;28;19949;-77
2021/09/30 10:33:23;;;;;;;3.08;0.90;;;17.80;54.30;;;;;;4982890;28;20084;-78
2021/09/30 10:35:58;;;;;;;3.33;0.95;;;17.50;54.20;;;;;;5000734;28;20038;-78
2021/09/30 10:38:29;;;;;;;2.03;0.68;;;17.40;54.60;;;;;;5003434;28;20022;-78
2021/09/30 10:41:09;;;;;;;3.57;1.13;;;17.50;54.60;;;;;;5014967;28;20099;-77
2021/09/30 10:43:42;;;;;;;3.13;1.05;;;18.00;53.60;;;;;;5017967;28;20123;-80
2021/09/30 10:46:30;;;;;;;4.03;0.90;;;18.20;52.80;;;;;;5016446;28;20030;-78
2021/09/30 10:48:57;;;;;;;4.97;0.90;;;17.80;51.90;;;;;;5005284;28;20434;-79
2021/09/30 10:51:23;;;;;;;1.58;0.68;;;17.20;53.30;;;;;;5017652;28;20021;-79
2021/09/30 10:53:50;;;;;;;0.98;0.50;;;16.80;54.10;;;;;;5028601;28;20030;-78
2021/09/30 10:56:39;;;;;;;1.25;0.60;;;16.30;55.40;;;;;;5008207;28;20474;-79
2021/09/30 10:59:07;;;;;;;2.55;0.63;;;15.80;57.50;;;;;;5021527;28;20029;-78
2021/09/30 11:01:49;;;;;;;2.85;0.60;;;15.50;57.90;;;;;;5021248;28;20026;-79
2021/09/30 11:04:16;;;;;;;0.75;0.50;;;15.40;58.00;;;;;;5023870;28;20033;-77
2021/09/30 11:07:02;;;;;;;1.85;0.88;;;15.40;58.70;;;;;;5016211;28;20034;-77
2021/09/30 11:09:28;;;;;;;2.60;0.85;;;15.80;59.60;;;;;;5011620;28;20026;-77
2021/09/30 11:12:11;;;;;;;0.43;0.43;;;16.70;57.70;;;;;;4997203;28;20049;-78
2021/09/30 11:14:57;;;;;;;3.08;0.52;;;17.50;53.00;;;;;;4999069;28;20376;-78
2021/09/30 11:17:33;;;;;;;0.85;0.50;;;18.10;50.90;;;;;;4995465;28;20088;-77
2021/09/30 11:20:37;;;;;;;2.78;0.95;;;18.50;50.70;;;;;;5008212;28;20398;-78
2021/09/30 11:23:42;;;;;;;1.40;0.50;;;19.00;49.30;;;;;;5014705;28;20428;-77
2021/09/30 11:26:11;;;;;;;1.85;0.50;;;19.00;50.00;;;;;;4996595;28;20022;-78
2021/09/30 11:28:37;;;;;;;1.38;0.40;;;19.10;49.70;;;;;;5015533;28;20038;-77
2021/09/30 11:31:25;;;;;;;3.20;0.77;;;19.40;48.30;;;;;;5004526;28;20102;-77
2021/09/30 11:34:02;;;;;;;0.65;0.52;;;19.30;47.90;;;;;;4996238;28;20049;-77
2021/09/30 11:36:42;;;;;;;2.55;0.60;;;18.70;49.10;;;;;;4977984;28;20459;-78
2021/09/30 11:39:09;;;;;;;1.80;0.60;;;18.40;49.30;;;;;;5022907;23;20117;-85
2021/09/30 11:41:38;;;;;;;1.40;0.73;;;18.10;50.10;;;;;;5017137;28;20060;-84
2021/09/30 11:44:05;;;;;;;1.48;0.55;;;17.80;51.30;;;;;;5020496;28;20022;-85
2021/09/30 11:46:36;;;;;;;1.42;0.45;;;17.40;52.40;;;;;;5020612;28;20061;-84
2021/09/30 11:49:09;;;;;;;2.73;0.67;;;17.00;52.90;;;;;;5005342;28;20045;-83
2021/09/30 11:51:43;;;;;;;1.27;0.47;;;16.70;54.10;;;;;;5020896;28;20435;-80
2021/09/30 11:54:14;;;;;;;2.50;0.75;;;16.70;54.90;;;;;;5021668;28;20018;-84
2021/09/30 11:56:54;;;;;;;1.52;0.57;;;16.50;54.90;;;;;;5004111;28;20022;-84
2021/09/30 11:59:23;;;;;;;2.13;0.50;;;16.20;54.80;;;;;;4993358;28;20117;-84
2021/09/30 12:01:54;;;;;;;3.22;0.70;;;15.90;56.10;;;;;;4983863;28;20080;-82
2021/09/30 12:07:28;;;;;;;4.57;0.82;;;15.60;57.20;;;;;;4985314;28;20057;-83
2021/09/30 12:09:56;;;;;;;1.20;0.50;;;15.60;57.30;;;;;;5005836;28;20117;-81
2021/09/30 12:12:36;;;;;;;0.65;0.52;;;15.90;57.30;;;;;;5017054;28;20026;-82
2021/09/30 12:15:03;;;;;;;3.83;0.80;;;16.10;56.60;;;;;;5004652;28;20030;-82
2021/09/30 12:17:32;;;;;;;2.88;0.70;;;16.50;55.00;;;;;;4986430;28;20053;-83
2021/09/30 12:19:58;;;;;;;2.05;0.70;;;16.50;54.30;;;;;;4986195;28;20034;-84
2021/09/30 12:22:47;;;;;;;1.58;0.73;;;16.40;54.80;;;;;;5009961;28;20026;-83
2021/09/30 12:25:16;;;;;;;3.10;0.50;;;16.10;55.30;;;;;;5024600;28;20482;-82
2021/09/30 12:27:46;;;;;;;2.50;0.52;;;15.80;56.70;;;;;;5005470;28;20065;-82
2021/09/30 12:30:16;;;;;;;0.70;0.35;;;15.60;57.20;;;;;;5009786;28;20064;-82
2021/09/30 12:32:45;;;;;;;1.25;0.73;;;15.80;58.20;;;;;;4997608;28;20025;-83
2021/09/30 12:35:38;;;;;;;1.33;0.90;;;16.40;57.00;;;;;;5027598;28;20029;-84
2021/09/30 12:38:22;;;;;;;2.65;0.60;;;17.00;55.50;;;;;;5025206;28;20041;-81
2021/09/30 12:40:53;;;;;;;1.20;0.40;;;17.60;54.00;;;;;;5013759;28;20053;-84
2021/09/30 12:43:27;;;;;;;3.28;0.80;;;17.90;51.90;;;;;;4996422;28;20031;-84
2021/09/30 12:46:07;;;;;;;1.85;0.50;;;17.90;51.10;;;;;;5004552;28;20054;-83
2021/09/30 12:48:33;;;;;;;1.17;0.47;;;17.60;52.40;;;;;;4991922;28;20030;-80
2021/09/30 12:51:06;;;;;;;3.65;0.82;;;17.60;52.80;;;;;;5005762;28;20030;-84
2021/09/30 12:53:49;;;;;;;2.95;0.57;;;17.70;52.20;;;;;;5006525;28;20026;-84
2021/09/30 12:56:17;;;;;;;3.47;0.70;;;17.90;52.50;;;;;;5003346;28;20022;-84
2021/09/30 12:58:47;;;;;;;1.70;0.60;;;17.90;51.20;;;;;;5001924;28;20029;-82
2021/09/30 13:01:26;;;;;;;0.88;0.30;;;17.70;52.10;;;;;;4982003;28;20046;-83
2021/09/30 13:04:10;;;;;;;2.83;0.70;;;17.60;52.40;;;;;;5000112;28;20057;-86
2021/09/30 13:06:42;;;;;;;2.30;0.73;;;17.60;52.50;;;;;;4998891;28;20109;-85
2021/09/30 13:09:23;;;;;;;2.35;0.70;;;17.50;52.60;;;;;;4986798;28;20026;-87
2021/09/30 13:11:51;;;;;;;1.77;0.60;;;17.40;52.60;;;;;;5014258;28;20014;-84
2021/09/30 13:14:21;;;;;;;3.10;0.68;;;17.50;54.20;;;;;;5003838;28;20108;-85
2021/09/30 13:16:52;;;;;;;1.13;0.40;;;17.70;52.90;;;;;;5025006;28;20029;-83
2021/09/30 13:19:19;;;;;;;1.08;0.47;;;17.70;52.70;;;;;;5009701;28;20068;-84
2021/09/30 13:22:02;;;;;;;4.05;0.75;;;18.00;52.70;;;;;;5022742;28;20021;-84
2021/09/30 13:24:28;;;;;;;2.83;0.60;;;18.50;51.20;;;;;;4993388;28;20045;-85
2021/09/30 13:26:54;;;;;;;1.48;0.73;;;18.70;50.60;;;;;;4985508;28;20046;-84
2021/09/30 13:29:20;;;;;;;0.80;0.50;;;18.60;50.30;;;;;;5005947;28;20042;-82
2021/09/30 13:31:46;;;;;;;1.73;0.60;;;18.40;51.60;;;;;;5013747;28;20023;-85
2021/09/30 13:34:12;;;;;;;1.58;0.57;;;18.60;53.00;;;;;;5006239;28;20137;-83
2021/09/30 13:36:39;;;;;;;1.92;0.50;;;18.90;52.40;;;;;;5004510;28;20022;-82
2021/09/30 13:39:05;;;;;;;4.18;0.60;;;19.50;50.30;;;;;;5009418;28;20098;-83
2021/09/30 13:41:31;;;;;;;2.13;0.57;;;19.70;47.70;;;;;;5025793;28;20026;-82
2021/09/30 13:43:56;;;;;;;2.53;0.65;;;19.80;47.10;;;;;;5025285;28;20033;-83
2021/09/30 13:46:22;;;;;;;1.00;0.60;;;19.80;47.60;;;;;;5025165;28;20061;-83
2021/09/30 13:48:48;;;;;;;3.22;1.00;;;19.80;47.80;;;;;;5027617;28;20029;-83
2021/09/30 13:51:14;;;;;;;2.17;0.80;;;19.60;47.20;;;;;;5030464;28;20021;-82
2021/09/30 13:53:40;;;;;;;3.60;0.90;;;19.20;48.20;;;;;;5032091;28;20020;-81
2021/09/30 13:56:05;;;;;;;2.80;1.00;;;18.90;48.40;;;;;;5009667;28;20026;-81
2021/09/30 13:58:33;;;;;;;2.38;1.00;;;18.60;49.40;;;;;;5030030;28;20113;-81
2021/09/30 14:00:59;;;;;;;3.00;0.55;;;18.40;49.90;;;;;;5029822;28;20048;-81
2021/09/30 14:03:25;;;;;;;2.30;0.57;;;18.20;50.20;;;;;;5023160;28;20030;-81
2021/09/30 14:05:51;;;;;;;3.72;0.88;;;18.00;50.80;;;;;;5001914;28;20026;-82
2021/09/30 14:08:18;;;;;;;1.23;0.68;;;18.00;51.50;;;;;;5005233;28;20027;-83
2021/09/30 14:10:45;;;;;;;2.78;0.70;;;18.20;50.40;;;;;;4994108;28;20068;-81
2021/09/30 14:13:16;;;;;;;4.55;0.70;;;18.30;50.30;;;;;;5005872;28;20108;-83
2021/09/30 14:15:44;;;;;;;1.35;0.65;;;18.30;50.10;;;;;;5023730;28;20129;-83
2021/09/30 14:18:10;;;;;;;0.93;0.60;;;18.10;50.20;;;;;;5026856;28;20026;-82
2021/09/30 14:20:36;;;;;;;2.15;0.80;;;18.10;50.90;;;;;;5028642;28;20034;-82
2021/09/30 14:23:02;;;;;;;3.28;1.13;;;18.10;51.30;;;;;;5019140;28;20489;-82
2021/09/30 14:25:28;;;;;;;1.83;0.90;;;18.10;51.00;;;;;;5004358;28;20022;-83
2021/09/30 14:27:53;;;;;;;2.65;0.70;;;18.10;51.60;;;;;;5002522;28;20057;-83
2021/09/30 14:30:19;;;;;;;0.82;0.50;;;18.20;50.70;;;;;;5007008;28;20034;-83
2021/09/30 14:32:45;;;;;;;4.32;0.70;;;18.30;50.60;;;;;;5002252;28;20018;-82
2021/09/30 14:35:11;;;;;;;0.43;0.40;;;18.10;50.50;;;;;;4992440;28;20053;-81
2021/09/30 14:37:37;;;;;;;1.02;0.70;;;17.80;51.50;;;;;;4984884;28;20080;-81
2021/09/30 14:40:03;;;;;;;0.73;0.43;;;17.60;52.20;;;;;;4986094;28;20037;-82
2021/09/30 14:42:29;;;;;;;1.05;0.63;;;17.30;53.10;;;;;;5007103;28;20026;-82
2021/09/30 14:44:57;;;;;;;2.55;0.98;;;17.10;53.90;;;;;;5000944;28;20061;-82
2021/09/30 14:47:23;;;;;;;2.85;0.88;;;16.90;54.30;;;;;;4983571;28;20081;-81
2021/09/30 14:49:49;;;;;;;4.35;0.82;;;16.70;53.80;;;;;;4982812;28;20026;-82
2021/09/30 14:52:17;;;;;;;3.97;0.70;;;16.70;54.20;;;;;;5002467;28;20034;-84
2021/09/30 14:54:42;;;;;;;2.53;0.55;;;16.50;54.10;;;;;;5000606;28;20022;-84
2021/09/30 14:57:08;;;;;;;3.33;0.80;;;16.50;55.20;;;;;;5000346;28;20097;-84
2021/09/30 14:59:35;;;;;;;3.15;1.40;;;16.60;55.10;;;;;;4983672;28;20125;-84
2021/09/30 15:02:02;;;;;;;1.65;0.50;;;16.50;55.10;;;;;;4982605;28;20034;-82
2021/09/30 15:04:27;;;;;;;1.05;0.50;;;16.40;55.90;;;;;;4984105;28;20055;-82
2021/09/30 15:06:53;;;;;;;1.95;0.47;;;16.30;56.50;;;;;;5001044;28;20031;-83
2021/09/30 15:09:19;;;;;;;1.88;0.70;;;16.30;56.60;;;;;;4988594;28;20040;-84
2021/09/30 15:11:45;;;;;;;1.60;0.63;;;16.30;57.30;;;;;;5012909;28;20029;-83
2021/09/30 15:14:11;;;;;;;0.77;0.60;;;16.30;57.80;;;;;;5021126;28;20026;-83
2021/09/30 15:19:47;;;;;;;1.35;0.57;;;16.40;57.60;;;;;;4968687;28;20027;-83
2021/09/30 15:22:12;;;;;;;1.63;0.75;;;16.30;57.20;;;;;;5023055;28;20043;-82
2021/09/30 15:24:39;;;;;;;1.85;0.60;;;16.30;57.10;;;;;;5021397;28;20029;-82
2021/09/30 15:27:05;;;;;;;0.55;0.40;;;16.30;56.80;;;;;;5020096;28;20068;-84
2021/09/30 15:29:31;;;;;;;3.65;2.80;;;16.30;57.30;;;;;;5019789;28;20026;-84
2021/09/30 15:31:57;;;;;;;4.47;0.68;;;16.20;57.60;;;;;;5020163;28;20024;-82
2021/09/30 15:34:22;;;;;;;1.05;0.57;;;16.10;57.80;;;;;;5010663;28;20022;-82
2021/09/30 15:36:48;;;;;;;2.10;0.90;;;16.00;58.20;;;;;;4999119;28;20080;-82
2021/09/30 15:39:14;;;;;;;3.58;0.60;;;16.00;57.30;;;;;;5020092;28;20235;-82
2021/09/30 15:41:42;;;;;;;2.38;0.90;;;15.90;58.00;;;;;;5016401;28;20034;-83
2021/09/30 15:44:08;;;;;;;1.33;0.50;;;15.90;58.40;;;;;;5003728;28;20073;-83
2021/09/30 15:46:33;;;;;;;1.85;0.40;;;15.80;58.50;;;;;;5004327;28;20073;-83
2021/09/30 15:49:00;;;;;;;2.28;0.93;;;15.70;59.40;;;;;;5004501;28;20030;-82
2021/09/30 15:51:26;;;;;;;1.98;0.63;;;15.70;60.00;;;;;;5005881;28;20023;-82
2021/09/30 15:53:51;;;;;;;3.20;1.00;;;15.50;60.20;;;;;;5003843;28;20077;-82
2021/09/30 15:56:17;;;;;;;4.80;0.73;;;15.40;60.70;;;;;;5003942;28;20048;-82
2021/09/30 15:58:43;;;;;;;5.05;0.60;;;15.20;61.40;;;;;;5022772;28;20068;-81